Campo Grande Airport
SBCG : rendu visible

Aérodrome :











RETROUVEZ-NOUS SUR...

 
LOGIN :

S'inscrire | Disclaimer

   EN    FR    IT 

 









Légende :    VFR   VFR Marginal   IFR   IFR Intensif   IFR Très Intensif
Visi : 
Plafond : 
>= 8 km
>= 3000ft
5 à 8 km
1000 à 3000 ft
1500m à 5 km
500 à 1000 ft
800 à 1500m
200 à 500 ft
< 800m
< 200 ft
Symboles :   Orages  Brouillard  Fortes neiges  Fortes précipitations  Vent > 20 kt






- Altitude de l'aérodrome : 1833 ft
- Code IATA : CGR


SBCG - Campo Grande

DERNIER METAR :
  • 090700Z 14008KT CAVOK 18/16 Q1015

METARs EXPIRÉS :
  • 090600Z 15006KT CAVOK 18/16 Q1016
  • 090500Z 16005KT CAVOK 18/16 Q1016

TAF TAF SBCG
Valide du 09 à 06h jusqu'au 10 à 06h UTC


090300Z 0906/1006 13007KT CAVOK TN16/0908Z TX30/0917Z
PROB30 0908/0911 SCT008
BECMG 0913/0915 17008KT 9999 SCT040
BECMG 0920/0922 CAVOK RMK PEL



MET'MAP, la Météo Aéronautique d'un coup d'oeil ! - Copyright ORBIFLY Décembre 2007 - Disclaimer

ORBIFLY MET'MAP TEAM :

Programmation & Développement : Alexandra Zaïnal
Sur une idée originale de : Baudouin d'Aumeries
Assistance à la programmation : Marc-Olivier Méhu
Soutien technique & logistique : Manuel Goepfert

Contact : metmap@orbifly.com




SOURCES & CREDITS :

   NOAA       Earth
Advisory